Time;durP1;ratioP1;P1;durP2;ratioP2;P2;SDS_P1;SDS_P2;PMS_P1;PMS_P2;Temp;Humidity;BMP_temperature;BMP_pressure;BME280_temperature;BME280_humidity;BME280_pressure;Samples;Min_cycle;Max_cycle;Signal;HPM_P1;HPM_P2
2022/08/31 00:06:14;;;;;;;24.30;9.65;;;;;;;20.43;64.50;98692.38;4864527;29;20614;-90
2022/08/31 00:08:40;;;;;;;21.75;9.18;;;;;;;20.17;64.89;98662.97;4859409;29;20058;-88
2022/08/31 00:11:09;;;;;;;18.85;9.60;;;;;;;20.13;65.07;98656.59;4846760;29;20041;-89
2022/08/31 00:13:37;;;;;;;21.95;9.75;;;;;;;20.34;65.18;98703.84;4861595;29;20052;-91
2022/08/31 00:16:03;;;;;;;24.25;10.25;;;;;;;20.10;65.46;98671.28;4846653;29;20041;-90
2022/08/31 00:18:31;;;;;;;22.33;10.02;;;;;;;19.58;65.51;98590.28;4845702;29;20048;-93
2022/08/31 00:20:57;;;;;;;29.42;10.50;;;;;;;20.19;65.47;98700.22;4829913;29;20113;-87
2022/08/31 00:23:49;;;;;;;20.90;10.23;;;;;;;20.16;65.78;98705.78;4860562;29;20550;-91
2022/08/31 00:26:15;;;;;;;24.05;10.27;;;;;;;19.94;66.10;98672.44;4770687;29;20055;-90
2022/08/31 00:29:13;;;;;;;25.15;10.32;;;;;;;19.75;66.24;98652.56;4780714;29;20058;-91
2022/08/31 00:31:45;;;;;;;;;;;;;;;20.07;66.48;98706.16;4774389;29;20146;-92
2022/08/31 00:34:12;;;;;;;24.88;9.88;;;;;;;19.88;66.61;98670.44;4808471;29;19929;-92
2022/08/31 00:36:42;;;;;;;23.83;9.57;;;;;;;19.64;66.82;98649.75;4777333;29;20072;-92
2022/08/31 00:39:08;;;;;;;24.58;10.02;;;;;;;19.98;67.13;98705.72;4777972;29;20108;-94
2022/08/31 00:44:33;;;;;;;22.70;10.60;;;;;;;19.86;67.31;98706.84;4807589;29;20756;-90
2022/08/31 00:47:00;;;;;;;20.73;9.40;;;;;;;19.33;67.76;98632.53;4759271;30;20046;-91
2022/08/31 00:49:31;;;;;;;18.38;9.38;;;;;;;19.49;67.96;98666.25;4806616;29;20545;-92
2022/08/31 00:52:02;;;;;;;17.83;8.90;;;;;;;19.71;68.02;98711.56;4777020;30;20077;-90
2022/08/31 00:57:32;;;;;;;19.98;9.63;;;;;;;19.70;68.26;98712.75;4807444;29;20573;-89
2022/08/31 01:00:00;;;;;;;27.50;10.43;;;;;;;19.66;68.37;98708.34;4792622;29;20042;-89
2022/08/31 01:02:29;;;;;;;22.45;9.15;;;;;;;19.55;68.28;98688.88;4792307;29;20104;-89
2022/08/31 01:04:55;;;;;;;20.95;8.93;;;;;;;19.39;68.45;98664.22;4867686;29;20089;-92
2022/08/31 01:07:22;;;;;;;17.23;9.48;;;;;;;19.50;68.45;98689.22;4880767;29;20590;-92
2022/08/31 01:09:48;;;;;;;18.67;8.93;;;;;;;19.60;68.64;98709.88;4883265;29;20546;-91
2022/08/31 01:12:44;;;;;;;26.13;9.15;;;;;;;19.60;68.42;98704.31;4880994;29;20048;-93
2022/08/31 01:15:13;;;;;;;16.63;8.88;;;;;;;19.31;68.85;98665.38;4869637;29;20048;-89
2022/08/31 01:17:42;;;;;;;16.75;9.63;;;;;;;19.25;69.08;98645.56;4863967;29;20046;-90
2022/08/31 01:20:20;;;;;;;24.30;9.88;;;;;;;19.20;69.12;98653.44;4871660;29;20549;-91
2022/08/31 01:23:30;;;;;;;19.50;9.55;;;;;;;19.51;69.33;98695.59;4879471;29;20053;-92
2022/08/31 01:26:01;;;;;;;17.60;9.68;;;;;;;19.21;69.45;98661.38;4864504;29;20480;-93
2022/08/31 01:28:27;;;;;;;17.25;9.98;;;;;;;19.16;69.58;98660.94;4871724;29;20175;-93
2022/08/31 01:31:14;;;;;;;22.27;10.27;;;;;;;19.08;69.96;98659.31;4871508;29;20075;-93
2022/08/31 01:33:42;;;;;;;20.95;10.07;;;;;;;19.32;70.37;98703.00;4881726;29;20073;-94
2022/08/31 01:36:13;;;;;;;27.83;9.88;;;;;;;19.24;70.58;98695.84;4846899;29;20140;-92
2022/08/31 01:38:39;;;;;;;23.10;10.93;;;;;;;18.92;70.92;98660.38;4846375;29;20057;-89
2022/08/31 01:41:05;;;;;;;23.80;10.60;;;;;;;19.05;71.23;98671.16;4844743;29;20045;-87
2022/08/31 01:43:33;;;;;;;26.42;10.48;;;;;;;19.00;71.22;98656.47;4829903;29;20131;-90
2022/08/31 01:46:08;;;;;;;21.60;10.55;;;;;;;19.17;71.43;98685.50;4829538;29;20061;-92
2022/08/31 01:48:37;;;;;;;;;;;;;;;19.09;71.74;98692.16;4843118;29;20070;-90
2022/08/31 01:51:04;;;;;;;20.52;10.25;;;;;;;19.00;72.29;98688.91;4817613;29;20003;-92
2022/08/31 01:53:31;;;;;;;17.95;10.70;;;;;;;18.95;72.66;98687.31;4826508;29;20054;-88
2022/08/31 01:55:57;;;;;;;;;;;;;;;18.88;73.14;98681.72;4799859;29;20053;-92
2022/08/31 01:58:25;;;;;;;19.02;10.35;;;;;;;18.58;73.44;98645.84;4791762;29;19921;-92
2022/08/31 02:01:30;;;;;;;23.15;11.57;;;;;;;18.44;73.68;98624.41;4783596;30;20051;-92
2022/08/31 02:03:56;;;;;;;26.20;11.38;;;;;;;18.64;73.71;98655.41;4792351;29;20085;-91
2022/08/31 02:06:23;;;;;;;18.67;10.55;;;;;;;18.62;73.80;98652.22;4788202;29;20055;-91
2022/08/31 02:08:50;;;;;;;24.48;11.15;;;;;;;18.53;74.25;98654.50;4774490;29;20058;-90
2022/08/31 02:11:16;;;;;;;22.92;11.48;;;;;;;18.33;74.33;98626.25;4774082;29;20126;-89
2022/08/31 02:13:42;;;;;;;18.97;10.90;;;;;;;18.17;74.54;98609.13;4800800;29;20042;-90
2022/08/31 02:16:12;;;;;;;19.50;11.82;;;;;;;18.11;74.78;98611.41;4808180;29;20121;-88
2022/08/31 02:18:39;;;;;;;24.52;11.07;;;;;;;18.21;75.13;98637.59;4794409;29;20046;-94
2022/08/31 02:21:06;;;;;;;25.63;11.80;;;;;;;18.08;75.08;98615.75;4811136;29;20065;-89
2022/08/31 02:23:32;;;;;;;30.65;12.23;;;;;;;18.01;75.27;98620.41;4842555;29;20114;-92
2022/08/31 02:25:58;;;;;;;30.83;11.07;;;;;;;18.31;75.60;98662.63;4827014;29;20053;-92
2022/08/31 02:28:25;;;;;;;28.27;11.35;;;;;;;18.40;75.69;98672.56;4810783;29;20110;-91
2022/08/31 02:30:54;;;;;;;27.23;11.77;;;;;;;18.33;75.82;98673.31;4826538;29;20034;-87
2022/08/31 02:33:21;;;;;;;26.60;11.07;;;;;;;18.32;75.76;98674.47;4819629;29;20607;-90
2022/08/31 02:35:49;;;;;;;19.58;11.45;;;;;;;18.25;75.68;98663.34;4863550;29;20139;-89
2022/08/31 02:38:17;;;;;;;22.58;11.85;;;;;;;18.21;75.94;98656.97;4852114;29;20037;-91
2022/08/31 02:40:45;;;;;;;29.63;11.93;;;;;;;18.05;76.22;98638.66;4866159;29;20041;-90
2022/08/31 02:43:14;;;;;;;24.02;11.52;;;;;;;18.03;76.10;98632.69;4896357;29;20051;-91
2022/08/31 02:45:41;;;;;;;21.23;11.25;;;;;;;18.12;76.31;98651.75;4848074;29;20547;-90
2022/08/31 02:48:14;;;;;;;19.42;11.20;;;;;;;18.06;76.29;98645.75;4879587;29;20124;-91
2022/08/31 02:50:43;;;;;;;27.55;11.27;;;;;;;17.92;76.17;98617.97;4864298;29;20125;-92
2022/08/31 02:53:11;;;;;;;27.20;10.38;;;;;;;18.15;76.38;98650.22;4893008;29;20025;-92
2022/08/31 02:55:38;;;;;;;22.35;12.35;;;;;;;18.18;76.61;98663.25;4900004;29;20044;-91
2022/08/31 02:58:05;;;;;;;20.92;10.50;;;;;;;18.14;76.46;98665.19;4909293;29;20120;-93
2022/08/31 03:00:32;;;;;;;20.13;10.80;;;;;;;17.86;76.34;98632.50;4878773;29;20049;-88
2022/08/31 03:03:11;;;;;;;;;;;;;;;18.09;76.55;98663.56;4862363;29;20415;-91
2022/08/31 03:05:37;;;;;;;25.27;11.32;;;;;;;17.69;76.39;98611.75;4862717;29;19967;-89
2022/08/31 03:08:03;;;;;;;17.92;10.77;;;;;;;17.91;76.75;98657.03;4863369;29;20041;-89
2022/08/31 03:10:33;;;;;;;15.40;10.68;;;;;;;17.89;76.45;98653.88;4879741;29;20045;-90
2022/08/31 03:12:59;;;;;;;21.63;10.35;;;;;;;17.80;76.44;98640.34;4848344;29;20089;-90
2022/08/31 03:15:27;;;;;;;22.67;10.77;;;;;;;18.03;76.53;98679.72;4879591;29;20057;-93
2022/08/31 03:17:53;;;;;;;;;;;;;;;18.02;76.52;98671.81;4849538;29;20045;-91
2022/08/31 03:20:24;;;;;;;24.15;10.50;;;;;;;18.01;76.68;98667.44;4869553;29;19924;-93
2022/08/31 03:22:52;;;;;;;21.50;10.50;;;;;;;17.78;76.64;98637.97;4861773;29;20044;-91
2022/08/31 03:25:19;;;;;;;18.02;10.25;;;;;;;17.70;76.59;98632.69;4863985;29;20535;-89
2022/08/31 03:28:11;;;;;;;16.30;10.52;;;;;;;18.00;76.59;98669.41;4894562;29;20081;-88
2022/08/31 03:30:51;;;;;;;14.75;9.88;;;;;;;17.99;76.54;98669.78;4864560;29;20045;-89
2022/08/31 03:35:53;;;;;;;19.65;10.07;;;;;;;17.99;76.12;98662.28;4866483;29;20077;-92
2022/08/31 03:38:19;;;;;;;18.02;10.85;;;;;;;17.90;76.45;98650.72;4853190;29;20495;-91
2022/08/31 03:40:49;;;;;;;;;;;;;;;18.06;76.10;98661.56;4882866;29;20480;-90
2022/08/31 03:43:17;;;;;;;21.67;9.95;;;;;;;17.92;76.09;98629.03;4866429;29;19924;-87
2022/08/31 03:45:43;;;;;;;23.48;10.48;;;;;;;17.73;75.92;98612.59;4874027;29;20131;-90
2022/08/31 03:48:11;;;;;;;;;;;;;;;18.02;76.03;98658.75;4850595;29;20052;-90
2022/08/31 03:51:03;;;;;;;23.80;10.68;;;;;;;18.00;76.14;98661.09;4865016;29;19924;-90
2022/08/31 03:53:46;;;;;;;17.10;10.45;;;;;;;17.66;76.06;98607.78;4880046;29;20088;-89
2022/08/31 03:56:41;;;;;;;19.42;9.98;;;;;;;17.98;76.03;98659.88;4864712;29;20151;-90
2022/08/31 03:59:08;;;;;;;21.42;10.10;;;;;;;17.47;76.03;98569.25;4879953;29;20037;-91
2022/08/31 04:02:01;;;;;;;23.52;10.63;;;;;;;17.76;76.21;98606.31;4853272;29;20057;-91
2022/08/31 04:04:59;;;;;;;17.80;9.43;;;;;;;18.03;75.85;98631.91;4839066;29;20064;-90
2022/08/31 04:07:58;;;;;;;21.48;9.30;;;;;;;17.85;75.38;98606.84;4840331;29;20073;-91
2022/08/31 04:10:45;;;;;;;20.05;10.55;;;;;;;18.06;75.31;98631.16;4884466;29;20052;-90
2022/08/31 04:13:29;;;;;;;15.35;9.32;;;;;;;17.98;75.29;98621.16;4874767;29;20049;-91
2022/08/31 04:16:17;;;;;;;23.95;10.20;;;;;;;17.92;75.06;98612.44;4875668;29;20096;-90
2022/08/31 04:19:00;;;;;;;19.83;10.07;;;;;;;18.00;74.91;98611.31;4869301;29;20507;-90
2022/08/31 04:21:42;;;;;;;18.92;9.90;;;;;;;18.04;74.47;98598.31;4863929;29;20080;-91
2022/08/31 04:24:10;;;;;;;19.52;9.50;;;;;;;18.16;74.26;98613.84;4880958;29;20045;-90
2022/08/31 04:26:52;;;;;;;15.27;9.15;;;;;;;17.80;74.18;98560.97;4866509;29;20045;-89
2022/08/31 04:29:20;;;;;;;20.10;8.95;;;;;;;17.92;74.00;98568.19;4864472;29;20446;-93
2022/08/31 04:31:47;;;;;;;18.13;9.52;;;;;;;18.38;73.78;98641.75;4881181;29;20049;-94
2022/08/31 04:34:14;;;;;;;22.30;9.98;;;;;;;18.28;74.09;98626.63;4881605;29;20048;-94
2022/08/31 04:36:44;;;;;;;27.33;9.50;;;;;;;18.38;73.67;98627.91;4881588;29;20503;-88
2022/08/31 04:39:11;;;;;;;19.70;9.60;;;;;;;18.46;73.04;98602.66;4868168;29;20076;-93
2022/08/31 04:41:46;;;;;;;;;;;;;;;18.85;72.23;98646.50;4858202;29;20081;-94
2022/08/31 04:44:13;;;;;;;15.80;8.40;;;;;;;18.58;72.19;98615.41;4858547;29;20078;-91
2022/08/31 04:46:43;;;;;;;;;;;;;;;18.77;72.12;98653.13;4864175;29;20535;-89
2022/08/31 04:49:29;;;;;;;17.75;9.23;;;;;;;18.52;72.51;98626.03;4891973;29;19963;-91
2022/08/31 04:51:56;;;;;;;18.75;8.60;;;;;;;18.61;72.26;98631.25;4893716;29;20040;-90
2022/08/31 04:54:24;;;;;;;16.88;9.40;;;;;;;18.38;72.38;98589.94;4846462;29;20049;-91
2022/08/31 04:56:50;;;;;;;16.40;9.05;;;;;;;18.66;72.22;98632.88;4888194;29;20132;-90
2022/08/31 04:59:26;;;;;;;21.75;9.20;;;;;;;18.68;71.89;98633.28;4850765;29;20511;-90
2022/08/31 05:02:12;;;;;;;18.40;9.60;;;;;;;18.81;71.86;98642.09;4872841;29;20052;-90
2022/08/31 05:04:43;;;;;;;17.55;8.80;;;;;;;18.66;71.94;98616.25;4859915;29;20615;-89
2022/08/31 05:07:09;;;;;;;21.57;8.97;;;;;;;18.94;71.37;98629.53;4876507;29;20076;-92
2022/08/31 05:09:52;;;;;;;17.40;8.20;;;;;;;19.11;70.93;98642.72;4865964;29;20302;-92
2022/08/31 05:12:27;;;;;;;24.42;9.27;;;;;;;19.28;71.01;98655.06;4863572;29;20127;-92
2022/08/31 05:14:55;;;;;;;16.05;8.68;;;;;;;19.32;70.00;98636.50;4842045;29;20045;-91
2022/08/31 05:17:47;;;;;;;23.02;7.88;;;;;;;19.40;69.71;98632.59;4876445;29;20048;-90
2022/08/31 05:20:16;;;;;;;17.10;8.50;;;;;;;19.20;69.43;98581.41;4862663;29;20077;-89
2022/08/31 05:22:52;;;;;;;17.02;9.40;;;;;;;19.76;69.47;98643.03;4883430;29;20033;-90
2022/08/31 05:25:21;;;;;;;18.23;7.70;;;;;;;19.47;68.55;98555.00;4862379;29;20029;-94
2022/08/31 05:28:10;;;;;;;19.67;7.97;;;;;;;20.26;68.21;98632.84;4889865;29;20427;-93
2022/08/31 05:30:42;;;;;;;20.15;8.43;;;;;;;20.13;65.86;98592.78;4852138;29;20071;-94
2022/08/31 05:33:12;;;;;;;14.27;7.93;;;;;;;20.42;65.93;98621.38;4888820;29;20041;-93
2022/08/31 05:35:43;;;;;;;15.63;7.90;;;;;;;20.16;65.66;98592.00;4855608;29;20080;-90
2022/08/31 05:38:19;;;;;;;16.95;7.70;;;;;;;20.16;65.94;98619.75;4864142;29;20037;-91
2022/08/31 05:43:32;;;;;;;23.70;8.35;;;;;;;20.13;66.59;98623.31;4859334;29;20128;-92
2022/08/31 05:48:32;;;;;;;14.60;7.88;;;;;;;20.00;66.33;98599.91;4882223;29;20041;-92
2022/08/31 05:51:04;;;;;;;16.73;8.50;;;;;;;20.32;65.99;98644.34;4874485;29;20045;-92
2022/08/31 05:53:47;;;;;;;17.52;7.72;;;;;;;20.09;65.99;98619.75;4852780;29;20049;-93
2022/08/31 06:06:20;;;;;;;19.75;7.28;;;;;;;20.77;66.22;98659.50;4881670;29;20068;-95
2022/08/31 06:08:50;;;;;;;25.52;7.45;;;;;;;20.20;65.26;98617.78;4874397;23;20028;-94
2022/08/31 06:11:40;;;;;;;27.88;7.75;;;;;;;20.17;66.12;98633.25;4870328;23;20060;-96
2022/08/31 06:23:33;;;;;;;19.48;7.38;;;;;;;19.20;67.24;98589.72;4847664;29;20065;-94
2022/08/31 06:26:31;;;;;;;16.88;6.97;;;;;;;19.86;67.71;98687.44;4848243;29;20515;-94
2022/08/31 06:36:37;;;;;;;19.65;7.30;;;;;;;18.96;67.70;98594.72;4869840;29;20068;-94
2022/08/31 06:39:22;;;;;;;17.67;7.28;;;;;;;19.22;67.81;98662.16;4858920;29;20051;-94
2022/08/31 06:42:11;;;;;;;18.45;7.05;;;;;;;18.61;67.99;98583.38;4874054;29;20037;-93
2022/08/31 06:49:44;;;;;;;11.05;6.68;;;;;;;18.69;67.03;98610.75;4965119;23;20096;31
2022/08/31 07:09:51;;;;;;;11.73;5.80;;;;;;;19.63;66.57;98709.91;5382255;23;20064;-96
2022/08/31 07:12:43;;;;;;;26.35;6.03;;;;;;;19.07;66.57;98638.31;4870690;29;20072;-94
2022/08/31 07:21:37;;;;;;;13.15;6.43;;;;;;;19.00;69.10;98641.81;4891751;29;20057;-92
2022/08/31 07:27:24;;;;;;;7.60;4.88;;;;;;;19.56;65.49;98653.63;4997708;23;20061;-93
2022/08/31 07:30:23;;;;;;;11.98;5.07;;;;;;;20.24;64.41;98699.06;4887802;29;20060;-92
2022/08/31 07:33:06;;;;;;;10.55;4.75;;;;;;;20.35;62.71;98704.63;4904951;23;20090;-95
2022/08/31 07:42:30;;;;;;;7.20;4.13;;;;;;;20.55;60.54;98672.56;4884312;29;20053;-95
2022/08/31 07:45:05;;;;;;;16.38;4.00;;;;;;;20.71;59.30;98701.94;4856244;29;20045;-96
2022/08/31 07:47:51;;;;;;;12.77;5.38;;;;;;;20.60;60.75;98663.06;5115453;23;20041;-94
2022/08/31 07:50:25;;;;;;;11.00;4.07;;;;;;;20.91;58.98;98700.34;4892457;29;20034;-92
2022/08/31 07:53:49;;;;;;;7.78;4.50;;;;;;;20.80;59.25;98669.03;4873374;29;20052;-92
2022/08/31 07:56:24;;;;;;;9.30;3.80;;;;;;;20.78;58.20;98668.63;4883318;29;20041;-90
2022/08/31 07:59:19;;;;;;;17.70;4.25;;;;;;;20.88;58.34;98701.16;4907135;24;20132;-90
2022/08/31 08:02:00;;;;;;;8.25;4.03;;;;;;;20.77;59.02;98708.69;4901655;29;20045;-91
2022/08/31 08:04:29;;;;;;;9.00;3.90;;;;;;;20.42;59.13;98683.22;4878859;29;20041;-89
2022/08/31 08:07:16;;;;;;;10.27;3.85;;;;;;;20.51;59.23;98699.53;4888127;29;20060;-88
2022/08/31 08:09:57;;;;;;;16.83;4.03;;;;;;;20.34;59.72;98698.31;4871612;29;20104;-92
2022/08/31 08:13:12;;;;;;;6.78;4.00;;;;;;;19.95;60.21;98632.41;4884056;29;20080;-96
2022/08/31 08:15:57;;;;;;;9.73;4.05;;;;;;;20.19;60.37;98683.59;4883985;29;20051;-93
2022/08/31 08:18:36;;;;;;;11.68;5.07;;;;;;;20.39;60.81;98703.44;4882807;29;20456;-95
2022/08/31 08:21:03;;;;;;;10.65;3.90;;;;;;;20.18;60.29;98645.94;4872928;29;20041;-91
2022/08/31 08:23:29;;;;;;;;;;;;;;;20.60;60.18;98696.41;4867411;29;20574;-94
2022/08/31 08:26:12;;;;;;;9.85;3.90;;;;;;;20.28;60.07;98661.00;4865951;29;19924;-91
2022/08/31 08:28:58;;;;;;;8.23;4.15;;;;;;;20.18;60.42;98656.25;4885227;29;20147;-90
2022/08/31 08:31:27;;;;;;;11.55;3.97;;;;;;;20.12;60.87;98680.78;4883701;29;20041;-91
2022/08/31 08:33:53;;;;;;;7.50;3.95;;;;;;;19.88;61.36;98643.47;4884061;29;20037;-92
2022/08/31 08:36:22;;;;;;;11.02;4.38;;;;;;;20.21;61.56;98687.97;4855092;29;20049;-89
2022/08/31 08:38:52;;;;;;;11.95;3.92;;;;;;;20.02;61.52;98650.25;4872903;29;20503;-93
2022/08/31 08:41:27;;;;;;;9.95;4.43;;;;;;;19.99;61.97;98626.84;4890121;29;20045;-94
2022/08/31 08:43:59;;;;;;;13.10;4.13;;;;;;;20.14;61.60;98653.47;4890866;29;20033;-93
2022/08/31 08:46:52;;;;;;;13.25;3.90;;;;;;;20.58;61.15;98704.31;4844537;29;20053;-93
2022/08/31 08:49:56;;;;;;;14.02;3.95;;;;;;;20.62;60.72;98705.09;4876561;29;20045;-93
2022/08/31 08:52:34;;;;;;;11.55;3.95;;;;;;;20.25;61.97;98655.47;4889113;29;20108;-94
2022/08/31 08:55:21;;;;;;;7.22;3.63;;;;;;;20.25;62.13;98677.66;4873528;29;20056;-92
2022/08/31 08:57:50;;;;;;;16.13;3.85;;;;;;;20.00;62.13;98649.84;4874175;29;20045;-91
2022/08/31 09:00:19;;;;;;;17.23;4.50;;;;;;;20.29;62.25;98720.88;4888118;29;20056;-91
2022/08/31 09:03:06;;;;;;;7.07;4.38;;;;;;;20.20;63.02;98720.47;4856719;29;20053;-92
2022/08/31 09:06:40;;;;;;;8.00;3.58;;;;;;;20.01;62.30;98663.34;4861529;29;20080;-93
2022/08/31 09:09:41;;;;;;;8.60;4.22;;;;;;;20.42;61.38;98724.09;4845975;29;20095;-93
2022/08/31 09:12:45;;;;;;;14.90;3.88;;;;;;;20.40;60.58;98718.94;4854887;29;20059;-94
2022/08/31 09:16:03;;;;;;;12.00;3.60;;;;;;;20.64;60.53;98719.41;4885020;29;20162;-92
2022/08/31 09:19:04;;;;;;;21.23;3.70;;;;;;;20.66;59.42;98686.44;4878079;29;20053;-92
2022/08/31 09:21:48;;;;;;;6.35;3.17;;;;;;;20.98;58.39;98713.47;4866616;29;20041;-90
2022/08/31 09:24:35;;;;;;;10.90;3.30;;;;;;;21.07;57.24;98711.88;4867376;29;20049;-90
2022/08/31 09:27:19;;;;;;;9.40;3.40;;;;;;;21.29;56.28;98718.22;4883739;29;20068;-89
2022/08/31 09:30:34;;;;;;;11.00;3.35;;;;;;;21.42;56.16;98729.72;4853775;29;20093;-90
2022/08/31 09:33:00;;;;;;;9.48;2.80;;;;;;;21.12;55.15;98674.53;4863995;29;20045;-91
2022/08/31 09:35:40;;;;;;;5.88;3.08;;;;;;;21.34;55.39;98733.69;4851441;29;20041;-89
2022/08/31 09:38:16;;;;;;;8.85;2.85;;;;;;;21.06;55.56;98698.38;4873581;29;20061;-90
2022/08/31 09:40:48;;;;;;;7.50;3.13;;;;;;;21.16;56.68;98727.31;4884341;29;20052;-90
2022/08/31 09:43:37;;;;;;;9.70;3.35;;;;;;;21.13;57.33;98736.50;4858854;29;20052;-93
2022/08/31 09:46:08;;;;;;;12.18;2.67;;;;;;;21.04;57.96;98740.44;4865511;29;20112;-91
2022/08/31 09:48:55;;;;;;;20.23;3.13;;;;;;;20.59;59.25;98692.00;4881452;29;20116;-89
2022/08/31 09:52:11;;;;;;;9.02;3.13;;;;;;;21.01;59.08;98738.47;4882420;29;20041;-91
2022/08/31 10:00:50;;;;;;;9.23;2.83;;;;;;;21.58;56.03;98732.06;4880935;23;20060;-90
2022/08/31 10:03:23;;;;;;;10.82;2.90;;;;;;;21.48;55.89;98727.31;4880841;29;20045;-92
2022/08/31 10:05:53;;;;;;;12.73;2.67;;;;;;;21.19;55.33;98691.22;4846997;29;20053;-93
2022/08/31 10:08:56;;;;;;;15.45;2.70;;;;;;;21.60;56.75;98745.59;4846403;29;20560;-88
2022/08/31 10:11:30;;;;;;;8.10;3.15;;;;;;;21.52;56.13;98742.00;4848250;29;20113;-91
2022/08/31 10:14:03;;;;;;;6.93;2.90;;;;;;;21.53;56.15;98743.63;4864754;29;20104;-90
2022/08/31 10:16:40;;;;;;;7.93;3.05;;;;;;;21.62;56.16;98743.19;4841618;29;20060;-90
2022/08/31 10:19:21;;;;;;;15.85;3.78;;;;;;;21.41;56.23;98713.44;4861214;29;20064;-89
2022/08/31 10:21:56;;;;;;;11.23;3.00;;;;;;;21.14;57.58;98694.38;4831560;29;20076;-92
2022/08/31 10:24:47;;;;;;;10.60;3.30;;;;;;;21.37;58.69;98740.47;4847384;29;20085;-90
2022/08/31 10:27:19;;;;;;;10.57;2.72;;;;;;;21.10;58.47;98726.97;4817123;29;20092;-91
2022/08/31 10:30:31;;;;;;;7.10;2.90;;;;;;;21.43;57.98;98745.22;4847087;29;20038;-95
2022/08/31 10:36:31;;;;;;;6.50;2.85;;;;;;;21.42;54.38;98706.66;4811951;29;20124;-93
2022/08/31 10:38:59;;;;;;;7.18;3.10;;;;;;;21.63;54.47;98737.22;4861836;29;20041;-88
2022/08/31 10:41:31;;;;;;;9.65;2.88;;;;;;;21.60;54.71;98745.59;4842450;29;20085;-89
2022/08/31 10:47:29;;;;;;;10.18;2.80;;;;;;;21.04;55.24;98656.28;4864270;29;20136;-92
2022/08/31 10:49:59;;;;;;;6.97;3.83;;;;;;;21.95;54.65;98741.88;4858186;23;20050;-91
2022/08/31 10:52:31;;;;;;;7.57;2.85;;;;;;;21.85;55.24;98704.53;4848941;29;20541;-91
2022/08/31 10:56:13;;;;;;;9.65;2.97;;;;;;;21.78;54.28;98696.22;4880430;23;20061;-91
2022/08/31 10:58:54;;;;;;;6.32;3.80;;;;;;;22.25;54.32;98742.19;4833326;23;20051;-89
2022/08/31 11:04:21;;;;;;;9.35;2.90;;;;;;;21.55;54.15;98686.38;4872688;29;20531;-91
2022/08/31 11:07:23;;;;;;;7.63;2.83;;;;;;;21.59;54.33;98725.31;4881768;29;20045;-93
2022/08/31 11:10:02;;;;;;;11.63;3.72;;;;;;;21.67;55.60;98748.34;4883150;29;20128;-91
2022/08/31 11:12:55;;;;;;;11.60;4.13;;;;;;;21.32;58.87;98759.09;4866584;29;20037;-92
2022/08/31 11:15:43;;;;;;;15.07;4.80;;;;;;;20.88;64.01;98776.16;4867462;29;20053;-92
2022/08/31 11:18:51;;;;;;;11.38;3.50;;;;;;;20.49;66.12;98792.72;4872089;29;20075;-89
2022/08/31 11:21:49;;;;;;;8.27;3.25;;;;;;;19.68;68.23;98769.78;4867538;29;20542;-92
2022/08/31 11:25:06;;;;;;;7.75;3.08;;;;;;;19.52;70.01;98763.72;4851278;29;20136;-92
2022/08/31 11:27:57;;;;;;;5.35;2.83;;;;;;;19.38;69.65;98754.13;4836993;29;20053;-93
2022/08/31 11:30:44;;;;;;;10.75;3.53;;;;;;;19.56;70.79;98789.47;4808310;29;20041;-92
2022/08/31 11:33:34;;;;;;;5.53;3.17;;;;;;;19.21;71.89;98749.25;4840226;29;20425;-91
2022/08/31 11:36:10;;;;;;;6.40;2.67;;;;;;;18.97;72.08;98736.78;4823095;29;20076;-89
2022/08/31 11:39:02;;;;;;;6.85;2.83;;;;;;;19.39;72.62;98777.88;4812774;29;20093;-92
2022/08/31 11:41:47;;;;;;;8.45;3.60;;;;;;;19.22;73.10;98739.75;4811785;29;20045;-92
2022/08/31 11:45:05;;;;;;;9.13;3.80;;;;;;;19.57;72.88;98785.50;4828291;29;20077;-90
2022/08/31 11:47:40;;;;;;;7.88;3.97;;;;;;;19.53;72.46;98799.34;4825523;29;20051;-91
2022/08/31 11:51:02;;;;;;;16.55;6.65;;;;;;;19.51;72.66;98795.41;4809416;29;20069;-89
2022/08/31 11:53:50;;;;;;;24.67;8.90;;;;;;;19.57;73.06;98791.06;4827676;29;20062;-87
2022/08/31 11:56:46;;;;;;;6.10;3.40;;;;;;;19.46;70.97;98789.00;4801626;29;20077;-88
2022/08/31 11:59:27;;;;;;;9.88;4.50;;;;;;;19.51;70.70;98798.16;4798010;29;20065;-89
2022/08/31 12:01:57;;;;;;;10.05;5.40;;;;;;;19.34;70.93;98767.16;4863293;23;20427;-87
2022/08/31 12:04:29;;;;;;;13.65;3.47;;;;;;;19.49;69.33;98790.22;4907278;29;20039;-88
2022/08/31 12:07:27;;;;;;;7.68;2.80;;;;;;;19.39;69.36;98793.72;4912749;29;20064;-88
2022/08/31 12:10:17;;;;;;;13.02;4.88;;;;;;;19.48;70.72;98794.19;4905144;29;20404;-88
2022/08/31 12:13:17;;;;;;;11.77;4.90;;;;;;;19.53;69.41;98790.25;4902293;29;20041;-88
2022/08/31 12:16:10;;;;;;;6.72;3.45;;;;;;;19.45;69.02;98794.94;4902350;29;20040;-88
2022/08/31 12:19:05;;;;;;;5.82;3.33;;;;;;;19.59;69.54;98797.03;4901923;29;20040;-87
2022/08/31 12:25:57;;;;;;;7.22;3.30;;;;;;;19.34;67.94;98735.88;4813299;29;20041;-88
2022/08/31 12:29:10;;;;;;;11.98;4.60;;;;;;;19.49;66.45;98763.28;4848670;29;20532;-87
2022/08/31 12:32:25;;;;;;;15.90;4.10;;;;;;;19.89;67.13;98791.28;4821942;29;20072;-89
2022/08/31 12:35:23;;;;;;;14.85;4.68;;;;;;;19.88;66.31;98784.94;4849583;29;20062;-89
2022/08/31 12:38:20;;;;;;;8.38;3.78;;;;;;;20.21;66.68;98785.88;4819035;29;20065;-89
2022/08/31 12:41:31;;;;;;;13.98;3.67;;;;;;;20.48;63.79;98791.13;4832757;29;20104;-90
2022/08/31 12:44:03;;;;;;;5.80;2.53;;;;;;;20.13;61.57;98737.09;4823987;29;20056;-87
2022/08/31 12:46:57;;;;;;;11.48;3.53;;;;;;;20.44;60.71;98785.56;4853382;29;20061;-87
2022/08/31 12:49:59;;;;;;;11.30;3.30;;;;;;;20.06;57.58;98748.16;4850927;29;20090;-87
2022/08/31 12:52:56;;;;;;;9.75;3.03;;;;;;;20.06;55.88;98753.72;4873001;29;20057;-88
2022/08/31 12:55:36;;;;;;;6.55;2.20;;;;;;;20.13;54.93;98776.75;4919263;29;20036;-90
2022/08/31 12:58:29;;;;;;;4.88;1.70;;;;;;;20.03;53.00;98746.16;4894754;29;20044;-90
2022/08/31 13:01:16;;;;;;;9.50;1.70;;;;;;;20.29;52.87;98784.72;4893567;29;20033;-87
2022/08/31 13:03:46;;;;;;;9.82;1.70;;;;;;;20.31;53.23;98804.56;4896471;29;20092;-88
2022/08/31 13:06:21;;;;;;;10.63;1.50;;;;;;;20.22;50.26;98795.78;4874207;29;20046;-89
2022/08/31 13:08:50;;;;;;;4.93;1.40;;;;;;;19.92;51.10;98760.78;4880335;29;20044;-90
2022/08/31 13:11:34;;;;;;;11.02;1.92;;;;;;;20.12;51.08;98802.88;4844463;29;20094;-86
2022/08/31 13:14:27;;;;;;;6.75;1.80;;;;;;;20.05;51.89;98836.16;4876397;29;20132;-88
2022/08/31 13:17:23;;;;;;;9.82;1.83;;;;;;;19.96;49.67;98819.06;4859700;29;20463;-88
2022/08/31 13:20:02;;;;;;;6.57;1.48;;;;;;;19.86;48.18;98812.25;4867892;29;20132;-89
2022/08/31 13:22:39;;;;;;;2.15;1.23;;;;;;;19.83;47.50;98784.50;4868402;29;20048;-90
2022/08/31 13:25:30;;;;;;;12.40;1.77;;;;;;;19.53;46.36;98743.09;4882089;29;20131;-91
2022/08/31 13:27:56;;;;;;;6.82;1.30;;;;;;;19.73;46.38;98741.66;4878650;29;20072;-88
2022/08/31 13:31:10;;;;;;;10.60;1.38;;;;;;;20.09;47.81;98802.88;4876612;29;20072;-88
2022/08/31 13:33:41;;;;;;;6.85;1.40;;;;;;;19.96;46.35;98802.41;4872156;29;20044;-88
2022/08/31 13:36:32;;;;;;;7.05;1.20;;;;;;;19.59;45.11;98780.38;4876057;29;20045;-90
2022/08/31 13:39:15;;;;;;;4.07;1.15;;;;;;;19.63;46.68;98809.75;4876996;29;20037;-90
2022/08/31 13:42:06;;;;;;;5.95;1.10;;;;;;;19.22;47.20;98787.66;4881394;29;20048;-90
2022/08/31 13:44:38;;;;;;;1.85;1.20;;;;;;;19.20;49.19;98767.03;4895695;29;20052;-91
2022/08/31 13:47:16;;;;;;;9.00;1.58;;;;;;;19.17;47.98;98779.69;4878233;29;20092;-88
2022/08/31 13:50:21;;;;;;;16.98;1.67;;;;;;;19.18;48.65;98780.50;4878869;29;20045;-93
2022/08/31 13:52:56;;;;;;;9.65;1.50;;;;;;;18.97;48.59;98781.91;4892500;29;20033;-90
2022/08/31 13:55:42;;;;;;;10.98;2.58;;;;;;;18.76;49.22;98742.94;4893482;29;20034;-93
2022/08/31 13:58:40;;;;;;;7.22;1.52;;;;;;;18.71;46.89;98749.59;4884757;23;20074;-93
2022/08/31 14:01:25;;;;;;;12.75;1.60;;;;;;;19.11;46.38;98805.38;4832956;29;20065;-90
2022/08/31 14:04:48;;;;;;;7.25;1.20;;;;;;;19.53;45.68;98849.25;4876208;29;20054;-93
2022/08/31 14:07:40;;;;;;;2.85;1.27;;;;;;;19.22;44.54;98778.53;4849276;29;20077;-91
2022/08/31 14:10:18;;;;;;;6.03;1.10;;;;;;;19.66;44.90;98841.44;4856975;29;20400;-94
2022/08/31 14:12:47;;;;;;;7.63;1.50;;;;;;;19.70;45.36;98847.81;4851915;29;20057;-93